createdAt,value
2018-03-14T00:00:49.287Z,2.90
2018-03-14T00:03:16.332Z,4.23
2018-03-14T00:05:43.325Z,2.37
2018-03-14T00:08:10.266Z,2.10
2018-03-14T00:10:37.114Z,2.70
2018-03-14T00:13:04.041Z,5.30
2018-03-14T00:15:30.965Z,2.67
2018-03-14T00:17:57.912Z,2.43
2018-03-14T00:20:24.790Z,3.17
2018-03-14T00:22:51.750Z,3.70
2018-03-14T00:25:18.634Z,2.60
2018-03-14T00:27:45.744Z,4.33
2018-03-14T00:30:12.618Z,4.23
2018-03-14T00:32:39.504Z,2.53
2018-03-14T00:35:06.444Z,4.60
2018-03-14T00:37:33.334Z,2.57
2018-03-14T00:40:00.173Z,5.50
2018-03-14T00:42:27.084Z,3.37
2018-03-14T00:44:53.949Z,2.67
2018-03-14T00:47:20.890Z,3.50
2018-03-14T00:49:47.789Z,2.93
2018-03-14T00:52:14.762Z,2.00
2018-03-14T00:54:41.621Z,5.47
2018-03-14T00:57:08.539Z,4.53
2018-03-14T00:59:35.417Z,7.27
2018-03-14T01:02:02.586Z,2.43
2018-03-14T01:04:29.555Z,2.33
2018-03-14T01:06:56.711Z,2.47
2018-03-14T01:09:23.597Z,2.90
2018-03-14T01:11:50.440Z,3.80
2018-03-14T01:14:17.384Z,3.73
2018-03-14T01:16:44.346Z,2.20
2018-03-14T01:19:11.254Z,2.50
2018-03-14T01:21:38.215Z,3.13
2018-03-14T01:24:05.203Z,5.40
2018-03-14T01:26:32.233Z,2.97
2018-03-14T01:28:59.038Z,2.50
2018-03-14T01:31:25.992Z,3.43
2018-03-14T01:33:52.929Z,2.37
2018-03-14T01:36:19.880Z,3.00
2018-03-14T01:38:46.834Z,3.50
2018-03-14T01:41:13.833Z,2.90
2018-03-14T01:43:40.824Z,2.53
2018-03-14T01:46:07.747Z,3.70
2018-03-14T01:48:34.704Z,2.90
2018-03-14T01:51:01.668Z,3.97
2018-03-14T01:53:28.560Z,3.47
2018-03-14T01:55:55.582Z,2.97
2018-03-14T01:58:22.479Z,3.47
2018-03-14T02:00:49.513Z,5.47
2018-03-14T02:03:16.683Z,3.50
2018-03-14T02:05:43.614Z,3.57
2018-03-14T02:08:10.502Z,3.00
2018-03-14T02:10:37.487Z,2.73
2018-03-14T02:13:04.460Z,3.03
2018-03-14T02:15:31.335Z,3.33
2018-03-14T02:17:58.276Z,3.80
2018-03-14T02:20:25.160Z,2.97
2018-03-14T02:22:52.037Z,3.40
2018-03-14T02:25:18.984Z,3.00
2018-03-14T02:27:45.961Z,2.87
2018-03-14T02:30:12.946Z,3.10
2018-03-14T02:32:39.843Z,4.00
2018-03-14T02:35:06.834Z,3.17
2018-03-14T02:37:33.778Z,4.57
2018-03-14T02:40:00.668Z,2.57
2018-03-14T02:42:27.639Z,3.00
2018-03-14T02:44:54.560Z,3.60
2018-03-14T02:47:21.569Z,3.20
2018-03-14T02:49:48.439Z,4.33
2018-03-14T02:52:15.384Z,3.50
2018-03-14T02:54:42.276Z,3.33
2018-03-14T02:57:09.126Z,3.30
2018-03-14T02:59:36.048Z,3.73
2018-03-14T03:02:03.027Z,3.77
2018-03-14T03:04:29.921Z,3.30
2018-03-14T03:06:56.898Z,4.73
2018-03-14T03:09:23.793Z,3.53
2018-03-14T03:11:50.699Z,4.33
2018-03-14T03:14:17.678Z,3.47
2018-03-14T03:16:44.689Z,3.13
2018-03-14T03:19:11.526Z,3.33
2018-03-14T03:21:38.487Z,3.83
2018-03-14T03:24:05.432Z,3.43
2018-03-14T03:26:32.381Z,4.73
2018-03-14T03:28:59.297Z,3.70
2018-03-14T03:31:26.366Z,3.97
2018-03-14T03:33:53.224Z,3.83
2018-03-14T03:36:20.313Z,3.20
2018-03-14T03:38:47.318Z,3.20
2018-03-14T03:41:14.307Z,3.23
2018-03-14T03:43:41.209Z,3.27
2018-03-14T03:46:08.269Z,3.87
2018-03-14T03:48:35.341Z,3.30
2018-03-14T03:51:02.386Z,3.90
2018-03-14T03:53:29.283Z,3.57
2018-03-14T03:55:56.387Z,3.57
2018-03-14T03:58:23.258Z,3.33
2018-03-14T04:00:50.229Z,3.83
2018-03-14T04:03:17.223Z,5.20
2018-03-14T04:05:44.231Z,3.50
2018-03-14T04:08:11.083Z,4.20
2018-03-14T04:10:38.118Z,4.43
2018-03-14T04:13:05.155Z,3.70
2018-03-14T04:15:32.034Z,5.03
2018-03-14T04:17:58.976Z,4.87
2018-03-14T04:20:25.881Z,4.37
2018-03-14T04:22:52.844Z,4.67
2018-03-14T04:25:19.797Z,4.57
2018-03-14T04:27:46.846Z,4.27
2018-03-14T04:30:13.747Z,4.97
2018-03-14T04:32:40.644Z,4.50
2018-03-14T04:35:07.497Z,4.30
2018-03-14T04:37:34.457Z,5.00
2018-03-14T04:40:01.372Z,5.10
2018-03-14T04:42:28.196Z,5.87
2018-03-14T04:44:55.042Z,5.30
2018-03-14T04:47:21.941Z,4.47
2018-03-14T04:49:48.909Z,4.30
2018-03-14T04:52:15.905Z,4.60
2018-03-14T04:54:42.781Z,4.57
2018-03-14T04:57:09.706Z,4.50
2018-03-14T04:59:36.697Z,4.00
2018-03-14T05:02:03.596Z,4.33
2018-03-14T05:04:30.453Z,4.10
2018-03-14T05:06:57.388Z,4.03
2018-03-14T05:09:24.196Z,4.33
2018-03-14T05:11:51.094Z,4.53
2018-03-14T05:14:18.151Z,5.33
2018-03-14T05:16:45.233Z,6.60
2018-03-14T05:19:12.215Z,56.00
2018-03-14T05:21:39.205Z,5.73
2018-03-14T05:24:06.048Z,4.47
2018-03-14T05:26:32.977Z,4.70
2018-03-14T05:28:59.835Z,4.60
2018-03-14T05:31:26.839Z,5.70
2018-03-14T05:33:53.742Z,7.40
2018-03-14T05:36:20.672Z,5.10
2018-03-14T05:38:47.552Z,5.40
2018-03-14T05:41:14.625Z,6.30
2018-03-14T05:43:41.526Z,5.03
2018-03-14T05:46:08.435Z,6.57
2018-03-14T05:48:35.277Z,6.37
2018-03-14T05:51:02.227Z,4.97
2018-03-14T05:53:29.089Z,7.17
2018-03-14T05:55:56.001Z,5.97
2018-03-14T05:58:22.986Z,4.87
2018-03-14T06:00:50.150Z,4.87
2018-03-14T06:03:17.004Z,5.67
2018-03-14T06:05:43.990Z,4.73
2018-03-14T06:08:10.949Z,5.87
2018-03-14T06:10:37.796Z,5.80
2018-03-14T06:13:04.641Z,5.90
2018-03-14T06:15:31.480Z,7.33
2018-03-14T06:17:58.361Z,6.73
2018-03-14T06:20:25.241Z,6.07
2018-03-14T06:22:52.173Z,5.63
2018-03-14T06:25:19.084Z,6.43
2018-03-14T06:27:46.096Z,6.47
2018-03-14T06:30:12.981Z,6.70
2018-03-14T06:33:00.080Z,7.53
2018-03-14T06:35:40.316Z,6.03
2018-03-14T06:38:07.142Z,7.23
2018-03-14T06:40:33.991Z,6.70
2018-03-14T06:43:00.934Z,6.80
2018-03-14T06:45:27.805Z,6.03
2018-03-14T06:47:54.733Z,8.13
2018-03-14T06:50:21.896Z,7.60
2018-03-14T06:52:48.775Z,9.73
2018-03-14T06:55:15.720Z,7.30
2018-03-14T06:57:42.583Z,7.07
2018-03-14T07:00:15.425Z,7.50
2018-03-14T07:02:47.214Z,8.37
2018-03-14T07:05:20.183Z,8.07
2018-03-14T07:07:47.183Z,6.67
2018-03-14T07:10:14.205Z,9.20
2018-03-14T07:12:41.101Z,12.97
2018-03-14T07:15:08.054Z,8.57
2018-03-14T07:17:34.914Z,10.53
2018-03-14T07:20:01.817Z,11.53
2018-03-14T07:22:28.751Z,8.47
2018-03-14T07:24:55.661Z,7.33
2018-03-14T07:27:22.620Z,6.50
2018-03-14T07:29:49.523Z,11.10
2018-03-14T07:32:16.609Z,6.90
2018-03-14T07:34:43.578Z,7.97
2018-03-14T07:37:10.422Z,7.00
2018-03-14T07:39:37.407Z,6.77
2018-03-14T07:42:04.419Z,7.83
2018-03-14T07:44:31.284Z,6.83
2018-03-14T07:46:58.177Z,7.17
2018-03-14T07:49:25.097Z,5.90
2018-03-14T07:51:52.100Z,5.90
2018-03-14T07:54:19.069Z,6.07
2018-03-14T07:56:46.228Z,5.07
2018-03-14T07:59:13.131Z,5.17
2018-03-14T08:01:40.129Z,5.23
2018-03-14T08:04:07.017Z,5.77
2018-03-14T08:06:33.990Z,4.33
2018-03-14T08:09:00.843Z,4.33
2018-03-14T08:11:27.803Z,4.23
2018-03-14T08:13:54.781Z,5.80
2018-03-14T08:16:21.845Z,4.63
2018-03-14T08:18:48.862Z,4.30
2018-03-14T08:21:15.886Z,4.00
2018-03-14T08:23:42.923Z,3.70
2018-03-14T08:26:09.942Z,3.00
2018-03-14T08:28:36.867Z,2.13
2018-03-14T08:31:03.808Z,2.67
2018-03-14T08:33:30.662Z,2.20
2018-03-14T08:35:57.626Z,2.00
2018-03-14T08:38:24.588Z,1.97
2018-03-14T08:40:51.722Z,1.70
2018-03-14T08:43:18.677Z,1.87
2018-03-14T08:45:45.634Z,1.40
2018-03-14T08:48:12.488Z,1.60
2018-03-14T08:50:39.340Z,2.90
2018-03-14T08:53:06.249Z,1.77
2018-03-14T08:55:33.195Z,2.23
2018-03-14T08:58:00.090Z,1.63
2018-03-14T09:00:26.927Z,1.43
2018-03-14T09:02:53.847Z,1.70
2018-03-14T09:05:20.789Z,1.50
2018-03-14T09:07:47.729Z,1.40
2018-03-14T09:10:14.671Z,1.30
2018-03-14T09:12:41.663Z,2.30
2018-03-14T09:15:08.514Z,1.67
2018-03-14T09:17:35.427Z,1.50
2018-03-14T09:20:02.285Z,1.57
2018-03-14T09:22:29.347Z,1.50
2018-03-14T09:24:56.153Z,1.47
2018-03-14T09:27:22.978Z,1.93
2018-03-14T09:29:49.881Z,1.60
2018-03-14T09:32:16.841Z,1.77
2018-03-14T09:34:43.808Z,1.90
2018-03-14T09:37:10.692Z,1.83
2018-03-14T09:39:37.582Z,1.93
2018-03-14T09:42:04.494Z,1.70
2018-03-14T09:44:31.441Z,1.73
2018-03-14T09:46:58.335Z,2.50
2018-03-14T09:49:25.148Z,1.97
2018-03-14T09:51:52.139Z,1.67
2018-03-14T09:54:19.199Z,2.00
2018-03-14T09:56:46.204Z,1.50
2018-03-14T09:59:13.123Z,1.53
2018-03-14T10:01:40.087Z,1.53
2018-03-14T10:04:06.946Z,1.23
2018-03-14T10:06:33.909Z,3.47
2018-03-14T10:09:00.775Z,1.13
2018-03-14T10:11:27.778Z,1.70
2018-03-14T10:13:54.675Z,1.57
2018-03-14T10:16:21.724Z,1.47
2018-03-14T10:18:48.538Z,2.27
2018-03-14T10:21:15.562Z,1.87
2018-03-14T10:23:42.533Z,1.27
2018-03-14T10:26:09.558Z,1.50
2018-03-14T10:28:36.557Z,1.10
2018-03-14T10:31:03.715Z,1.37
2018-03-14T10:33:30.619Z,1.40
2018-03-14T10:35:57.648Z,2.20
2018-03-14T10:38:24.498Z,1.20
2018-03-14T10:40:51.636Z,1.30
2018-03-14T10:43:18.519Z,1.40
2018-03-14T10:45:45.488Z,1.10
2018-03-14T10:48:12.383Z,1.37
2018-03-14T10:50:39.265Z,1.40
2018-03-14T10:53:06.158Z,1.73
2018-03-14T10:55:33.040Z,1.17
2018-03-14T10:57:59.882Z,2.87
2018-03-14T11:00:26.801Z,1.00
2018-03-14T11:05:55.588Z,1.20
2018-03-14T11:08:22.423Z,0.90
2018-03-14T11:10:49.319Z,1.20
2018-03-14T11:13:16.293Z,1.07
2018-03-14T11:15:43.136Z,0.70
2018-03-14T11:18:10.039Z,0.80
2018-03-14T11:20:37.008Z,0.70
2018-03-14T11:23:03.972Z,0.90
2018-03-14T11:25:30.920Z,0.77
2018-03-14T11:27:57.912Z,0.70
2018-03-14T11:30:24.794Z,0.63
2018-03-14T11:32:51.597Z,0.80
2018-03-14T11:35:18.511Z,0.70
2018-03-14T11:37:45.465Z,2.03
2018-03-14T11:40:12.354Z,0.67
2018-03-14T11:42:39.223Z,0.70
2018-03-14T11:45:06.138Z,0.80
2018-03-14T11:47:33.099Z,4.47
2018-03-14T11:49:59.944Z,1.20
2018-03-14T11:52:26.830Z,0.73
2018-03-14T11:54:53.715Z,2.93
2018-03-14T11:57:20.718Z,1.10
2018-03-14T11:59:47.678Z,1.10
2018-03-14T12:02:14.671Z,1.30
2018-03-14T12:04:41.574Z,1.67
2018-03-14T12:07:08.457Z,2.73
2018-03-14T12:09:35.417Z,1.20
2018-03-14T12:12:02.347Z,1.43
2018-03-14T12:14:29.221Z,1.30
2018-03-14T12:16:56.137Z,2.77
2018-03-14T12:19:23.007Z,1.30
2018-03-14T12:21:49.916Z,1.43
2018-03-14T12:24:16.785Z,2.03
2018-03-14T12:26:43.832Z,1.67
2018-03-14T12:29:10.675Z,1.27
2018-03-14T12:31:37.623Z,1.37
2018-03-14T12:34:04.578Z,1.50
2018-03-14T12:36:31.698Z,1.87
2018-03-14T12:38:58.585Z,1.87
2018-03-14T12:41:25.548Z,2.37
2018-03-14T12:43:52.472Z,2.13
2018-03-14T12:46:19.439Z,1.93
2018-03-14T12:48:46.377Z,2.00
2018-03-14T12:51:13.340Z,2.30
2018-03-14T12:53:40.271Z,2.13
2018-03-14T12:56:07.172Z,2.53
2018-03-14T12:58:34.092Z,2.17
2018-03-14T13:01:00.972Z,2.33
2018-03-14T13:03:27.803Z,2.93
2018-03-14T13:05:54.756Z,2.10
2018-03-14T13:08:21.586Z,2.27
2018-03-14T13:10:49.013Z,2.03
2018-03-14T13:13:16.203Z,2.50
2018-03-14T13:15:43.190Z,2.20
2018-03-14T13:18:10.164Z,2.70
2018-03-14T13:20:37.065Z,2.20
2018-03-14T13:23:03.948Z,1.60
2018-03-14T13:25:30.945Z,1.77
2018-03-14T13:27:57.868Z,1.87
2018-03-14T13:30:24.727Z,1.70
2018-03-14T13:32:51.611Z,1.57
2018-03-14T13:35:18.609Z,4.07
2018-03-14T13:37:45.519Z,1.83
2018-03-14T13:40:12.390Z,1.57
2018-03-14T13:42:39.215Z,1.73
2018-03-14T13:45:06.139Z,1.57
2018-03-14T13:47:33.009Z,2.33
2018-03-14T13:49:59.865Z,1.70
2018-03-14T13:52:26.827Z,2.00
2018-03-14T13:54:53.732Z,1.77
2018-03-14T13:57:20.716Z,1.73
2018-03-14T13:59:47.599Z,3.20
2018-03-14T14:02:14.512Z,1.63
2018-03-14T14:04:41.448Z,1.70
2018-03-14T14:07:08.335Z,2.27
2018-03-14T14:09:35.302Z,2.10
2018-03-14T14:12:02.270Z,3.30
2018-03-14T14:14:29.148Z,3.00
2018-03-14T14:16:56.135Z,5.00
2018-03-14T14:19:22.991Z,2.93
2018-03-14T14:21:49.978Z,3.20
2018-03-14T14:24:17.002Z,4.77
2018-03-14T14:26:44.138Z,3.83
2018-03-14T14:29:11.137Z,2.83
2018-03-14T14:31:38.140Z,2.80
2018-03-14T14:34:05.127Z,3.47
2018-03-14T14:36:32.239Z,2.90
2018-03-14T14:38:59.063Z,4.27
2018-03-14T14:41:26.216Z,2.60
2018-03-14T14:43:53.176Z,2.10
2018-03-14T14:46:20.247Z,3.80
2018-03-14T14:48:47.208Z,1.87
2018-03-14T14:51:14.204Z,1.77
2018-03-14T14:53:41.111Z,1.93
2018-03-14T14:56:08.005Z,2.43
2018-03-14T14:58:34.879Z,2.10
2018-03-14T15:01:01.889Z,2.03
2018-03-14T15:03:28.735Z,2.10
2018-03-14T15:05:55.704Z,1.70
2018-03-14T15:08:22.576Z,1.83
2018-03-14T15:10:49.485Z,1.50
2018-03-14T15:13:16.526Z,1.67
2018-03-14T15:15:43.448Z,1.70
2018-03-14T15:18:10.350Z,1.50
2018-03-14T15:20:37.250Z,1.77
2018-03-14T15:23:04.205Z,1.73
2018-03-14T15:25:31.125Z,1.67
2018-03-14T15:27:58.037Z,1.57
2018-03-14T15:30:24.804Z,1.70
2018-03-14T15:32:51.687Z,1.87
2018-03-14T15:35:18.557Z,1.30
2018-03-14T15:37:45.395Z,1.70
2018-03-14T15:40:12.361Z,1.37
2018-03-14T15:42:39.367Z,1.13
2018-03-14T15:45:06.296Z,1.20
2018-03-14T15:47:33.147Z,1.50
2018-03-14T15:50:00.011Z,1.30
2018-03-14T15:52:26.872Z,1.70
2018-03-14T15:54:53.836Z,1.50
2018-03-14T15:57:20.877Z,1.40
2018-03-14T15:59:47.803Z,2.93
2018-03-14T16:02:14.767Z,4.27
2018-03-14T16:04:41.725Z,1.90
2018-03-14T16:07:08.592Z,1.40
2018-03-14T16:09:35.654Z,5.03
2018-03-14T16:12:02.679Z,1.37
2018-03-14T16:14:29.537Z,1.40
2018-03-14T16:16:56.477Z,1.17
2018-03-14T16:19:23.349Z,1.53
2018-03-14T16:22:13.089Z,1.50
2018-03-14T16:24:42.873Z,6.53
2018-03-14T16:27:11.548Z,2.10
2018-03-14T16:29:39.659Z,2.07
2018-03-14T16:32:08.686Z,3.67
2018-03-14T16:34:39.187Z,2.93
2018-03-14T16:37:10.381Z,3.53
2018-03-14T16:39:48.774Z,2.33
2018-03-14T16:42:28.429Z,1.67
2018-03-14T16:44:55.943Z,2.00
2018-03-14T16:47:24.606Z,1.43
2018-03-14T16:49:52.335Z,3.13
2018-03-14T16:52:19.496Z,3.03
2018-03-14T16:55:04.838Z,1.67
2018-03-14T16:57:45.705Z,2.13
2018-03-14T17:00:12.749Z,2.93
2018-03-14T17:02:39.725Z,1.83
2018-03-14T17:05:06.562Z,3.70
2018-03-14T17:07:33.431Z,2.07
2018-03-14T17:10:05.575Z,7.70
2018-03-14T17:12:33.960Z,2.90
2018-03-14T17:15:04.354Z,2.80
2018-03-14T17:17:32.038Z,4.93
2018-03-14T17:20:03.529Z,2.73
2018-03-14T17:22:32.589Z,2.40
2018-03-14T17:25:04.261Z,2.67
2018-03-14T17:27:34.008Z,3.23
2018-03-14T17:30:07.979Z,2.27
2018-03-14T17:32:47.548Z,1.90
2018-03-14T17:35:24.434Z,1.97
2018-03-14T17:37:51.709Z,1.87
2018-03-14T17:40:18.973Z,2.10
2018-03-14T17:42:45.853Z,2.53
2018-03-14T17:45:12.947Z,2.43
2018-03-14T17:47:39.938Z,2.40
2018-03-14T17:50:06.899Z,4.70
2018-03-14T17:52:33.868Z,1.90
2018-03-14T17:55:00.837Z,2.30
2018-03-14T17:57:27.739Z,2.10
2018-03-14T17:59:54.879Z,3.03
2018-03-14T18:02:21.885Z,2.77
2018-03-14T18:04:48.766Z,2.30
2018-03-14T18:07:15.707Z,2.87
2018-03-14T18:09:53.437Z,4.53
2018-03-14T18:15:28.022Z,2.47
2018-03-14T18:17:56.155Z,5.30
2018-03-14T18:20:26.386Z,3.27
2018-03-14T18:22:53.293Z,3.43
2018-03-14T18:25:24.212Z,3.73
2018-03-14T18:27:51.168Z,3.13
2018-03-14T18:30:21.470Z,3.53
2018-03-14T18:32:50.612Z,5.27
2018-03-14T18:35:17.628Z,3.53
2018-03-14T18:37:44.608Z,4.67
2018-03-14T18:40:19.143Z,7.90
2018-03-14T18:42:46.235Z,6.93
2018-03-14T18:45:13.105Z,7.10
2018-03-14T18:47:40.027Z,3.67
2018-03-14T18:50:06.913Z,5.07
2018-03-14T18:52:33.851Z,3.90
2018-03-14T18:55:00.926Z,3.50
2018-03-14T18:57:27.821Z,4.13
2018-03-14T18:59:54.777Z,3.70
2018-03-14T19:02:21.905Z,3.17
2018-03-14T19:04:48.786Z,4.93
2018-03-14T19:07:15.729Z,4.03
2018-03-14T19:09:42.671Z,4.77
2018-03-14T19:12:09.617Z,4.10
2018-03-14T19:14:36.629Z,3.90
2018-03-14T19:17:03.507Z,6.37
2018-03-14T19:19:30.444Z,5.23
2018-03-14T19:21:57.404Z,3.93
2018-03-14T19:24:25.786Z,4.37
2018-03-14T19:26:52.678Z,5.70
2018-03-14T19:29:19.678Z,7.90
2018-03-14T19:31:46.620Z,6.80
2018-03-14T19:34:13.553Z,8.13
2018-03-14T19:36:40.778Z,9.13
2018-03-14T19:39:07.792Z,10.60
2018-03-14T19:41:34.711Z,10.27
2018-03-14T19:44:01.670Z,10.57
2018-03-14T19:46:29.269Z,11.07
2018-03-14T19:48:56.226Z,8.77
2018-03-14T19:51:23.202Z,9.30
2018-03-14T19:53:50.220Z,9.80
2018-03-14T19:56:17.505Z,12.53
2018-03-14T19:58:44.624Z,12.10
2018-03-14T20:01:11.768Z,11.73
2018-03-14T20:03:38.659Z,11.40
2018-03-14T20:06:05.644Z,14.13
2018-03-14T20:08:32.613Z,11.67
2018-03-14T20:10:59.571Z,11.40
2018-03-14T20:13:26.437Z,14.07
2018-03-14T20:15:53.432Z,14.40
2018-03-14T20:18:20.408Z,11.30
2018-03-14T20:20:47.404Z,12.13
2018-03-14T20:23:14.281Z,13.47
2018-03-14T20:25:41.158Z,15.70
2018-03-14T20:28:08.087Z,15.40
2018-03-14T20:30:35.058Z,16.60
2018-03-14T20:33:02.255Z,12.33
2018-03-14T20:35:29.166Z,13.30
2018-03-14T20:37:56.028Z,13.23
2018-03-14T20:40:22.914Z,14.90
2018-03-14T20:42:50.305Z,15.57
2018-03-14T20:45:17.290Z,11.87
2018-03-14T20:47:44.160Z,13.60
2018-03-14T20:50:11.106Z,13.83
2018-03-14T20:52:37.993Z,15.13
2018-03-14T20:55:05.520Z,14.37
2018-03-14T20:57:32.438Z,16.00
2018-03-14T20:59:59.429Z,14.37
2018-03-14T21:02:26.298Z,15.67
2018-03-14T21:04:53.206Z,18.40
2018-03-14T21:07:22.369Z,15.13
2018-03-14T21:09:49.292Z,15.37
2018-03-14T21:12:16.430Z,16.23
2018-03-14T21:14:43.413Z,16.27
2018-03-14T21:17:10.318Z,14.83
2018-03-14T21:19:37.172Z,15.77
2018-03-14T21:22:04.155Z,16.23
2018-03-14T21:24:31.026Z,20.33
2018-03-14T21:26:57.954Z,16.10
2018-03-14T21:29:24.848Z,17.33
2018-03-14T21:31:51.758Z,16.17
2018-03-14T21:34:18.690Z,17.57
2018-03-14T21:36:45.884Z,17.53
2018-03-14T21:39:12.865Z,17.97
2018-03-14T21:41:39.919Z,17.87
2018-03-14T21:44:06.787Z,17.63
2018-03-14T21:46:33.789Z,15.90
2018-03-14T21:49:00.718Z,16.03
2018-03-14T21:51:27.751Z,17.70
2018-03-14T21:53:54.636Z,15.70
2018-03-14T21:56:21.673Z,16.20
2018-03-14T21:58:48.720Z,18.90
2018-03-14T22:01:15.838Z,17.25
2018-03-14T22:03:42.863Z,17.65
2018-03-14T22:06:09.905Z,18.87
2018-03-14T22:08:36.824Z,16.77
2018-03-14T22:11:03.857Z,17.83
2018-03-14T22:13:31.635Z,17.12
2018-03-14T22:15:58.615Z,15.88
2018-03-14T22:18:25.507Z,17.87
2018-03-14T22:20:52.536Z,17.12
2018-03-14T22:23:19.558Z,19.42
2018-03-14T22:25:46.521Z,18.00
2018-03-14T22:28:13.561Z,17.62
2018-03-14T22:30:40.640Z,21.65
2018-03-14T22:33:07.654Z,18.35
2018-03-14T22:35:34.514Z,20.62
2018-03-14T22:38:01.447Z,15.55
2018-03-14T22:40:28.450Z,17.90
2018-03-14T22:42:55.372Z,18.83
2018-03-14T22:45:22.286Z,19.10
2018-03-14T22:47:49.331Z,18.12
2018-03-14T22:50:16.321Z,18.80
2018-03-14T22:52:43.313Z,19.30
2018-03-14T22:55:10.306Z,19.12
2018-03-14T22:57:37.194Z,18.58
2018-03-14T23:00:04.141Z,18.15
2018-03-14T23:02:31.148Z,19.62
2018-03-14T23:04:58.159Z,15.68
2018-03-14T23:07:25.097Z,19.30
2018-03-14T23:09:52.067Z,19.53
2018-03-14T23:12:19.020Z,19.92
2018-03-14T23:14:46.047Z,20.47
2018-03-14T23:17:13.039Z,19.12
2018-03-14T23:19:40.048Z,17.10
2018-03-14T23:22:06.990Z,18.85
2018-03-14T23:24:34.063Z,19.93
2018-03-14T23:27:01.204Z,19.65
2018-03-14T23:29:28.057Z,20.42
2018-03-14T23:31:54.900Z,18.83
2018-03-14T23:34:21.980Z,22.35
2018-03-14T23:36:48.955Z,17.92
2018-03-14T23:39:15.908Z,19.58
2018-03-14T23:41:43.001Z,22.52
2018-03-14T23:44:09.982Z,21.27
2018-03-14T23:46:36.976Z,19.17
2018-03-14T23:49:03.994Z,16.65
2018-03-14T23:51:30.998Z,19.15
2018-03-14T23:53:57.927Z,18.65
2018-03-14T23:56:24.989Z,20.08
2018-03-14T23:58:51.952Z,17.08
